Аэропорт
Магнитогорск (USCM)

 USCM / MQF

Russian Federation
RU-BA
Магнитогорск
 53.39310, 58.75570  / 1430 ft

 USCM 311000Z 14003MPS 9999 FEW040 06/M01 Q1013 R36/090060 NOSIG RMK QFE721
 TAF USCM 310800Z 3109/3118 14003G08MPS 9999 SCT040 TEMPO 3109/3118 18003G08MPS 3100 BR FU SCT011
показать схемы
Название сценария Тип сценария Flight Simulator 9 Flight Simulator X Prepar3D v2 Prepar3D v3 Prepar3D v4 xPlane
Магнитогорск бесплатный


2020 © VATRUS division (Privacy Policy)